TimePST,TemperatureF,Dew PointF,Humidity,Sea Level PressureIn,VisibilityMPH,Wind Direction,Wind SpeedMPH,Gust SpeedMPH,PrecipitationIn,Events,Conditions,WindDirDegrees,DateUTC
12:04 AM,57.2,57.2,100,30.07,2.5,Calm,Calm,-,0.00,Rain,Light Rain,0,2012-11-17 08:04:00
12:14 AM,57.2,57.2,100,30.07,5.0,Calm,Calm,-,0.00,Rain,Light Rain,0,2012-11-17 08:14:00
12:54 AM,57.0,57.0,100,30.06,6.0,NNE,3.5,-,0.00,,Overcast,20,2012-11-17 08:54:00
1:54 AM,57.0,57.0,100,30.04,6.0,ENE,4.6,-,N/A,,Overcast,60,2012-11-17 09:54:00
2:54 AM,57.9,57.9,100,30.04,6.0,NNE,3.5,-,N/A,,Overcast,20,2012-11-17 10:54:00
3:54 AM,57.9,57.9,100,30.03,6.0,NE,4.6,-,N/A,,Overcast,50,2012-11-17 11:54:00
4:50 AM,57.2,57.2,100,30.03,6.0,Calm,Calm,-,N/A,,Mostly Cloudy,0,2012-11-17 12:50:00
4:54 AM,57.0,57.0,100,30.03,6.0,Calm,Calm,-,N/A,,Mostly Cloudy,0,2012-11-17 12:54:00
5:54 AM,57.9,57.9,100,30.04,2.5,Calm,Calm,-,0.05,Rain,Heavy Rain,0,2012-11-17 13:54:00
6:03 AM,59.0,59.0,100,30.04,-9999.0,East,6.9,-,0.04,Rain,Rain,90,2012-11-17 14:03:00
6:12 AM,59.0,59.0,100,30.04,3.0,ESE,9.2,-,0.04,,Overcast,110,2012-11-17 14:12:00
6:54 AM,60.1,60.1,100,30.05,3.0,SE,10.4,-,0.04,,Overcast,130,2012-11-17 14:54:00
7:54 AM,61.0,61.0,100,30.07,5.0,ESE,11.5,-,0.00,Rain,Light Rain,120,2012-11-17 15:54:00
8:54 AM,61.0,61.0,100,30.08,4.0,SE,13.8,-,0.04,Rain,Rain,130,2012-11-17 16:54:00
9:54 AM,63.0,63.0,100,30.09,7.0,SE,17.3,-,0.00,,Overcast,130,2012-11-17 17:54:00
10:14 AM,62.6,62.6,100,30.08,3.0,SE,17.3,-,0.00,Rain,Light Rain,140,2012-11-17 18:14:00
10:54 AM,62.1,62.1,100,30.08,4.0,SE,13.8,-,0.01,Rain,Light Rain,130,2012-11-17 18:54:00
11:54 AM,62.1,62.1,100,30.06,4.0,SE,12.7,-,0.03,Rain,Light Rain,130,2012-11-17 19:54:00
12:14 PM,62.6,62.6,100,30.05,4.0,SE,12.7,-,N/A,Rain,Light Rain,130,2012-11-17 20:14:00
12:33 PM,62.6,62.6,100,30.05,4.0,SE,13.8,-,N/A,Rain,Light Rain,130,2012-11-17 20:33:00
12:38 PM,62.6,62.6,100,30.05,2.5,SE,17.3,-,N/A,Rain,Rain,130,2012-11-17 20:38:00
12:54 PM,63.0,63.0,100,30.04,4.0,SE,12.7,-,0.09,Rain,Light Rain,130,2012-11-17 20:54:00
1:05 PM,62.6,62.6,100,30.03,4.0,ESE,13.8,21.9,N/A,Rain,Light Rain,120,2012-11-17 21:05:00
1:12 PM,62.6,62.6,100,30.03,4.0,ESE,16.1,-,N/A,,Overcast,120,2012-11-17 21:12:00
1:25 PM,62.6,62.6,100,30.03,4.0,ESE,16.1,-,N/A,,Overcast,120,2012-11-17 21:25:00
1:50 PM,62.6,62.6,100,30.02,7.0,SSE,15.0,23.0,0.00,,Mostly Cloudy,150,2012-11-17 21:50:00
1:54 PM,63.0,63.0,100,30.03,7.0,SSE,18.4,23.0,0.00,,Mostly Cloudy,150,2012-11-17 21:54:00
2:18 PM,62.6,62.6,100,30.03,7.0,SSE,17.3,-,N/A,,Scattered Clouds,150,2012-11-17 22:18:00
2:54 PM,63.0,63.0,100,30.04,7.0,SSE,15.0,-,N/A,,Scattered Clouds,150,2012-11-17 22:54:00
4:54 PM,60.1,60.1,100,30.05,7.0,SSE,9.2,-,N/A,,Mostly Cloudy,160,2012-11-18 00:54:00
6:12 PM,60.8,60.8,100,30.05,7.0,SSE,6.9,-,N/A,,Overcast,160,2012-11-18 02:12:00
6:54 PM,60.1,60.1,100,30.06,7.0,SE,5.8,-,N/A,,Overcast,140,2012-11-18 02:54:00
7:07 PM,60.8,60.8,100,30.06,7.0,SSE,5.8,-,N/A,,Overcast,150,2012-11-18 03:07:00
7:54 PM,60.1,60.1,100,30.07,7.0,Calm,Calm,-,N/A,,Overcast,0,2012-11-18 03:54:00
8:18 PM,-9999,-9999,N/A,30.07,7.0,Calm,Calm,-,N/A,Rain,Light Rain,0,2012-11-18 04:18:00
8:29 PM,-9999,-9999,N/A,30.07,6.0,Calm,Calm,-,0.03,Rain,Light Rain,0,2012-11-18 04:29:00
8:54 PM,59.0,59.0,100,30.09,6.0,Calm,Calm,-,0.01,,Overcast,0,2012-11-18 04:54:00
9:54 PM,59.0,59.0,100,30.10,6.0,Calm,Calm,-,0.00,Rain,Light Rain,0,2012-11-18 05:54:00
10:15 PM,59.0,59.0,100,30.10,6.0,SSE,3.5,-,0.00,,Overcast,160,2012-11-18 06:15:00
10:26 PM,59.0,59.0,100,30.10,6.0,SSE,4.6,-,0.00,Rain,Light Rain,160,2012-11-18 06:26:00
10:54 PM,59.0,59.0,100,30.11,6.0,Calm,Calm,-,0.07,Rain,Light Rain,0,2012-11-18 06:54:00